KSFO/SFO METAR and TAF weather

Enter ICAO airport designator
Station Type Date Time Source
KSFO METAR 2018/12/11 19:56 UTC NOAA

KSFO 111956Z 04004KT 3SM R28R/2800VP6000FT BR SCT002 BKN180 09/08 A3021 RMK AO2 SLP228 T00940078


Station Type Date Time Source
KSFO Decoded METAR 2018/12/11 19:56 UTC NOAA

SAN FRANCISCO INTERNATIONAL AIRPORT , CA, United States (KSFO) 37-37N 122-22W 26M
Dec 11, 2018 - 02:56 PM EST / 2018.12.11 1956 UTC
Wind: from the NE (040 degrees) at 5 MPH (4 KT):0
Visibility: 3 mile(s):0
Sky conditions: mostly cloudy
Weather: mist
Temperature: 48.9 F (9.4 C)
Dew Point: 46.0 F (7.8 C)
Relative Humidity: 89%
Pressure (altimeter): 30.21 in. Hg (1023 hPa)
ob: KSFO 111956Z 04004KT 3SM R28R/2800VP6000FT BR SCT002 BKN180 09/08 A3021 RMK AO2 SLP228 T00940078
cycle: 20

Station Type Date Time Source
KSFO TAF 2018/12/11 20:42 UTC NOAA

TAF
AMD KSFO 111938Z 1120/1224 04005KT P6SM FEW007
TEMPO 1120/1121 1SM BR BKN004
FM112100 28010KT P6SM FEW012 SCT250
FM120800 29004KT P6SM SCT008 SCT250
FM121000 VRB04KT P6SM BKN008
FM121200 00000KT 6SM BR BKN005
FM121700 VRB04KT 6SM BR BKN008
FM122100 36005KT P6SM SCT150


Example: see airport list